Time;durP1;ratioP1;P1;durP2;ratioP2;P2;SDS_P1;SDS_P2;PMS_P1;PMS_P2;Temp;Humidity;BMP_temperature;BMP_pressure;BME280_temperature;BME280_humidity;BME280_pressure;Samples;Min_cycle;Max_cycle;Signal;HPM_P1;HPM_P2
2021/11/06 00:01:41;;;;;;;19.20;12.33;;;8.00;81.80;;;;;;5102271;28;20179;-83
2021/11/06 00:04:06;;;;;;;28.70;13.60;;;8.00;81.90;;;;;;5100341;28;20219;-84
2021/11/06 00:06:32;;;;;;;25.90;14.20;;;7.90;81.90;;;;;;5100806;28;20730;-84
2021/11/06 00:08:58;;;;;;;20.10;13.20;;;7.80;81.90;;;;;;5100067;28;20576;-84
2021/11/06 00:11:24;;;;;;;23.43;13.00;;;7.90;82.20;;;;;;5100749;28;20418;-84
2021/11/06 00:13:49;;;;;;;19.90;13.47;;;7.80;82.30;;;;;;5083362;28;20469;-84
2021/11/06 00:16:15;;;;;;;26.30;13.07;;;7.70;82.40;;;;;;5082630;28;20269;-84
2021/11/06 00:18:41;;;;;;;19.73;14.97;;;7.90;82.40;;;;;;5087736;28;20242;-84
2021/11/06 00:21:07;;;;;;;17.03;13.53;;;8.10;82.10;;;;;;5098364;28;20423;-84
2021/11/06 00:23:32;;;;;;;19.07;13.47;;;8.20;81.60;;;;;;5079521;28;20423;-84
2021/11/06 00:25:58;;;;;;;21.30;14.83;;;8.20;81.10;;;;;;5080782;28;20172;-84
2021/11/06 00:28:24;;;;;;;20.00;12.77;;;8.20;81.60;;;;;;5080066;28;20180;-84
2021/11/06 00:30:50;;;;;;;20.00;13.63;;;8.30;80.50;;;;;;5080576;28;20177;-84
2021/11/06 00:33:15;;;;;;;21.20;13.37;;;8.20;80.40;;;;;;5079872;28;20180;-84
2021/11/06 00:35:41;;;;;;;19.53;12.90;;;8.20;80.40;;;;;;5078526;28;21070;-84
2021/11/06 00:38:07;;;;;;;22.60;13.90;;;8.10;80.50;;;;;;5080392;28;20402;-84
2021/11/06 00:40:33;;;;;;;21.20;13.30;;;8.00;80.60;;;;;;5078373;28;20488;-84
2021/11/06 00:42:58;;;;;;;19.63;12.53;;;7.80;80.90;;;;;;5079439;28;20418;-84
2021/11/06 00:45:24;;;;;;;18.70;13.27;;;7.70;81.30;;;;;;5082505;28;20196;-84
2021/11/06 00:47:50;;;;;;;23.43;11.40;;;7.70;81.40;;;;;;5082474;28;20511;-84
2021/11/06 00:50:16;;;;;;;20.73;12.57;;;7.70;81.70;;;;;;5095479;28;20429;-84
2021/11/06 00:52:46;;;;;;;26.10;13.93;;;7.80;81.70;;;;;;5103895;28;20414;-84
2021/11/06 00:55:13;;;;;;;22.13;12.82;;;7.70;81.90;;;;;;5103851;28;20215;-84
2021/11/06 00:57:39;;;;;;;22.27;12.95;;;7.60;82.10;;;;;;5108231;28;20183;-84
2021/11/06 01:00:08;;;;;;;21.30;14.00;;;7.60;82.20;;;;;;5108704;28;20211;-84
2021/11/06 01:02:33;;;;;;;17.45;13.32;;;7.50;82.30;;;;;;5111326;28;20357;-84
2021/11/06 01:04:59;;;;;;;18.50;13.33;;;7.50;82.50;;;;;;5107480;28;20285;-84
2021/11/06 01:07:25;;;;;;;19.40;11.90;;;7.50;82.70;;;;;;5107446;28;20190;-84
2021/11/06 01:09:50;;;;;;;20.83;12.50;;;7.50;82.80;;;;;;5115645;28;20527;-84
2021/11/06 01:12:16;;;;;;;25.03;15.90;;;7.40;82.70;;;;;;5112087;28;20225;-84
2021/11/06 01:14:42;;;;;;;23.07;13.63;;;7.40;82.90;;;;;;5114122;28;20281;-84
2021/11/06 01:17:07;;;;;;;22.00;14.93;;;7.50;82.90;;;;;;5117291;28;20186;-84
2021/11/06 01:19:33;;;;;;;20.60;11.97;;;7.70;82.60;;;;;;5116461;28;20316;-84
2021/11/06 01:21:59;;;;;;;24.83;13.33;;;7.50;82.40;;;;;;5116670;28;20414;-84
2021/11/06 01:24:25;;;;;;;22.10;13.63;;;7.40;82.40;;;;;;5113674;28;20445;-84
2021/11/06 01:26:52;;;;;;;22.00;13.90;;;7.40;82.70;;;;;;5105008;28;20250;-84
2021/11/06 01:29:18;;;;;;;23.52;13.45;;;7.40;82.90;;;;;;5102142;28;20654;-84
2021/11/06 01:31:44;;;;;;;20.15;13.15;;;7.40;82.90;;;;;;5100719;28;20188;-84
2021/11/06 01:34:10;;;;;;;22.43;14.07;;;7.40;83.00;;;;;;5100104;28;20207;-84
2021/11/06 01:36:36;;;;;;;17.40;12.63;;;7.60;83.00;;;;;;5098558;28;20176;-84
2021/11/06 01:39:02;;;;;;;19.50;13.60;;;7.70;82.60;;;;;;5094265;28;20473;-84
2021/11/06 01:41:28;;;;;;;24.52;15.32;;;7.60;82.30;;;;;;5096606;28;20164;-84
2021/11/06 01:43:54;;;;;;;22.07;13.43;;;7.60;82.30;;;;;;5078444;28;20286;-82
2021/11/06 01:46:20;;;;;;;25.88;15.23;;;7.50;82.40;;;;;;5097612;28;20401;-83
2021/11/06 01:48:45;;;;;;;26.20;13.27;;;7.40;82.50;;;;;;5096522;28;20547;-83
2021/11/06 01:51:11;;;;;;;24.93;14.90;;;7.30;82.70;;;;;;5097617;28;20168;-83
2021/11/06 01:53:37;;;;;;;22.87;13.80;;;7.30;83.50;;;;;;5095954;28;20258;-83
2021/11/06 01:56:04;;;;;;;25.05;14.18;;;7.30;82.80;;;;;;5096596;28;20198;-83
2021/11/06 01:58:31;;;;;;;20.40;14.02;;;7.20;82.90;;;;;;5099046;28;20164;-82
2021/11/06 02:00:57;;;;;;;22.35;14.25;;;7.20;83.10;;;;;;5101099;28;20172;-82
2021/11/06 02:03:23;;;;;;;21.77;13.85;;;7.10;83.30;;;;;;5096355;28;20204;-83
2021/11/06 02:05:50;;;;;;;24.25;14.90;;;7.20;83.40;;;;;;5094282;28;20537;-83
2021/11/06 02:08:17;;;;;;;32.42;16.77;;;7.30;83.50;;;;;;5097960;28;20243;-83
2021/11/06 02:10:44;;;;;;;20.75;14.43;;;7.20;83.30;;;;;;5112181;28;20179;-82
2021/11/06 02:13:10;;;;;;;26.42;15.60;;;7.30;83.40;;;;;;5111818;28;20199;-83
2021/11/06 02:15:36;;;;;;;25.93;14.37;;;7.30;83.40;;;;;;5096676;28;20164;-83
2021/11/06 02:18:02;;;;;;;23.35;14.88;;;7.20;83.20;;;;;;5103410;28;20418;-83
2021/11/06 02:20:28;;;;;;;26.02;15.13;;;7.20;83.30;;;;;;5099330;28;20214;-83
2021/11/06 02:22:54;;;;;;;26.40;14.43;;;7.20;83.30;;;;;;5099707;28;20176;-83
2021/11/06 02:25:20;;;;;;;26.30;13.63;;;7.20;83.40;;;;;;5101049;28;20184;-82
2021/11/06 02:27:47;;;;;;;26.67;16.05;;;7.20;83.40;;;;;;5100850;28;20248;-83
2021/11/06 02:30:15;;;;;;;27.92;15.70;;;7.40;83.40;;;;;;5100076;28;20656;-83
2021/11/06 02:32:41;;;;;;;22.70;13.75;;;7.30;83.10;;;;;;5101321;28;20183;-83
2021/11/06 02:35:08;;;;;;;24.73;14.40;;;7.30;83.10;;;;;;5100130;28;20196;-83
2021/11/06 02:37:35;;;;;;;35.85;14.52;;;7.30;83.10;;;;;;5102000;28;20184;-84
2021/11/06 02:40:01;;;;;;;28.27;15.05;;;7.50;83.00;;;;;;5100650;28;20216;-83
2021/11/06 02:42:27;;;;;;;23.02;14.13;;;7.50;82.70;;;;;;5101191;28;20202;-83
2021/11/06 02:44:53;;;;;;;27.40;13.90;;;7.30;82.50;;;;;;5104119;28;20188;-83
2021/11/06 02:47:18;;;;;;;25.17;15.27;;;7.20;82.50;;;;;;5106371;28;20453;-83
2021/11/06 02:49:44;;;;;;;24.60;13.03;;;7.30;82.70;;;;;;5098028;28;20207;-83
2021/11/06 02:52:11;;;;;;;26.13;14.40;;;7.20;82.60;;;;;;5091213;28;20419;-83
2021/11/06 02:54:37;;;;;;;25.85;15.68;;;7.50;82.60;;;;;;5096478;28;20423;-83
2021/11/06 02:57:03;;;;;;;24.50;14.10;;;7.60;82.10;;;;;;5095680;28;20206;-83
2021/11/06 02:59:28;;;;;;;28.17;14.20;;;7.70;81.80;;;;;;5092340;28;20488;-83
2021/11/06 03:01:54;;;;;;;19.43;13.17;;;7.50;81.60;;;;;;5092236;28;20925;-83
2021/11/06 03:04:20;;;;;;;25.20;13.07;;;7.40;81.70;;;;;;5087483;28;20287;-83
2021/11/06 03:06:46;;;;;;;27.27;14.43;;;7.30;82.00;;;;;;5083434;28;20419;-84
2021/11/06 03:09:13;;;;;;;21.67;13.50;;;7.50;81.70;;;;;;5082770;28;20426;-84
2021/11/06 03:11:39;;;;;;;19.58;14.35;;;7.50;81.30;;;;;;5080965;28;20187;-84
2021/11/06 03:14:09;;;;;;;25.88;15.77;;;7.40;81.50;;;;;;5120047;28;20252;-84
2021/11/06 03:16:41;;;;;;;27.63;14.50;;;7.30;81.70;;;;;;5123238;28;20642;-84
2021/11/06 03:19:06;;;;;;;25.63;14.45;;;7.60;81.80;;;;;;5121143;28;20285;-83
2021/11/06 03:21:32;;;;;;;19.57;12.83;;;7.60;81.80;;;;;;5123152;28;20206;-84
2021/11/06 03:23:58;;;;;;;23.80;15.00;;;7.50;81.70;;;;;;5120785;28;20477;-84
2021/11/06 03:26:24;;;;;;;26.20;15.00;;;7.70;81.90;;;;;;5109966;28;20271;-84
2021/11/06 03:28:49;;;;;;;21.37;12.90;;;7.60;81.50;;;;;;5101617;28;20483;-84
2021/11/06 03:31:16;;;;;;;19.50;10.70;;;7.60;81.40;;;;;;5101104;28;20180;-84
2021/11/06 03:33:41;;;;;;;20.83;13.20;;;7.60;81.10;;;;;;5100015;28;20278;-84
2021/11/06 03:36:07;;;;;;;23.60;12.60;;;7.60;81.00;;;;;;5101504;28;20204;-84
2021/11/06 03:38:33;;;;;;;23.17;11.73;;;7.60;81.20;;;;;;5103672;28;20179;-83
2021/11/06 03:40:58;;;;;;;21.20;11.47;;;7.70;81.30;;;;;;5101766;28;20179;-83
2021/11/06 03:43:24;;;;;;;18.23;10.93;;;7.70;81.10;;;;;;5101156;28;20219;-83
2021/11/06 03:45:50;;;;;;;18.77;10.80;;;7.70;81.10;;;;;;5105319;28;20199;-84
2021/11/06 03:48:16;;;;;;;16.83;11.70;;;7.70;80.90;;;;;;5103236;28;20175;-84
2021/11/06 03:50:41;;;;;;;15.97;11.37;;;7.80;80.90;;;;;;5100704;28;20428;-84
2021/11/06 03:53:07;;;;;;;14.93;9.70;;;7.70;80.70;;;;;;5100010;28;20406;-84
2021/11/06 03:55:33;;;;;;;17.53;11.30;;;7.60;80.80;;;;;;5101755;28;20168;-84
2021/11/06 03:57:59;;;;;;;16.70;10.67;;;7.60;80.80;;;;;;5099453;28;20176;-84
2021/11/06 04:00:26;;;;;;;14.75;10.18;;;7.50;80.70;;;;;;5099723;28;20458;-84
2021/11/06 04:02:51;;;;;;;16.88;10.95;;;7.60;80.80;;;;;;5100348;28;20184;-84
2021/11/06 04:05:17;;;;;;;20.27;10.43;;;7.70;80.70;;;;;;5106560;28;20203;-83
2021/11/06 04:07:44;;;;;;;18.52;11.82;;;7.70;80.70;;;;;;5102215;28;20176;-83
2021/11/06 04:10:11;;;;;;;13.38;10.23;;;8.00;80.40;;;;;;5101478;28;20718;-83
2021/11/06 04:12:37;;;;;;;16.42;9.40;;;7.90;79.90;;;;;;5111742;28;20207;-83
2021/11/06 04:15:05;;;;;;;18.73;10.02;;;7.90;79.90;;;;;;5128986;28;20195;-83
2021/11/06 04:17:31;;;;;;;12.65;9.93;;;8.00;79.90;;;;;;5123404;28;20577;-83
2021/11/06 04:19:56;;;;;;;17.53;10.53;;;8.00;79.80;;;;;;5119762;28;20251;-84
2021/11/06 04:22:22;;;;;;;16.57;11.57;;;8.20;79.40;;;;;;5119366;28;20171;-83
2021/11/06 04:24:48;;;;;;;16.70;9.50;;;8.20;79.40;;;;;;5120188;28;20195;-83
2021/11/06 04:27:14;;;;;;;15.90;9.80;;;8.30;79.40;;;;;;5100150;28;20172;-84
2021/11/06 04:29:39;;;;;;;17.27;9.32;;;8.20;79.00;;;;;;5109073;28;20485;-84
2021/11/06 04:32:06;;;;;;;13.33;9.37;;;8.20;78.70;;;;;;5106328;28;20184;-84
2021/11/06 04:34:32;;;;;;;14.80;8.25;;;8.10;78.50;;;;;;5104482;28;20273;-84
2021/11/06 04:36:58;;;;;;;14.93;8.90;;;8.10;78.50;;;;;;5099714;28;20180;-84
2021/11/06 04:39:23;;;;;;;17.93;8.10;;;8.10;78.60;;;;;;5101689;28;20662;-84
2021/11/06 04:41:49;;;;;;;14.20;8.40;;;8.00;78.50;;;;;;5107908;28;20414;-84
2021/11/06 04:44:15;;;;;;;12.15;8.55;;;8.00;78.50;;;;;;5106574;28;20187;-84
2021/11/06 04:46:41;;;;;;;19.70;9.97;;;8.20;78.50;;;;;;5096187;28;20211;-84
2021/11/06 04:49:07;;;;;;;20.20;10.20;;;8.30;78.40;;;;;;5095830;28;20180;-84
2021/11/06 04:51:32;;;;;;;15.67;8.33;;;8.40;78.30;;;;;;5095208;28;20529;-84
2021/11/06 04:53:58;;;;;;;11.93;8.17;;;8.30;78.20;;;;;;5093473;28;20433;-84
2021/11/06 04:56:24;;;;;;;13.30;8.80;;;8.20;78.30;;;;;;5096417;28;20233;-84
2021/11/06 04:58:49;;;;;;;15.37;9.87;;;8.10;78.40;;;;;;5097587;28;20226;-84
2021/11/06 05:01:15;;;;;;;13.80;9.97;;;8.40;78.40;;;;;;5095805;28;20674;-84
2021/11/06 05:03:41;;;;;;;15.57;9.90;;;8.50;77.80;;;;;;5094433;28;20192;-83
2021/11/06 05:06:07;;;;;;;17.27;8.90;;;8.50;77.80;;;;;;5094570;28;20546;-84
2021/11/06 05:08:32;;;;;;;15.70;9.30;;;8.40;77.90;;;;;;5094715;28;20176;-84
2021/11/06 05:10:58;;;;;;;12.30;9.10;;;8.50;77.60;;;;;;5093863;28;20198;-84
2021/11/06 05:13:24;;;;;;;11.77;8.03;;;8.50;77.30;;;;;;5095290;28;20964;-84
2021/11/06 05:15:49;;;;;;;14.43;7.27;;;8.50;77.10;;;;;;5093604;28;20673;-84
2021/11/06 05:18:17;;;;;;;11.60;7.87;;;8.50;77.40;;;;;;5094887;28;20630;-84
2021/11/06 05:20:44;;;;;;;12.18;8.20;;;8.40;77.30;;;;;;5098499;28;20291;-84
2021/11/06 05:23:12;;;;;;;13.82;8.35;;;8.60;77.40;;;;;;5098584;28;20240;-84
2021/11/06 05:25:38;;;;;;;11.32;7.90;;;8.60;77.00;;;;;;5098611;28;20274;-83
2021/11/06 05:28:04;;;;;;;12.43;8.10;;;8.60;77.20;;;;;;5098836;28;20725;-83
2021/11/06 05:30:30;;;;;;;15.67;7.97;;;8.40;77.30;;;;;;5098379;28;20426;-83
2021/11/06 05:32:55;;;;;;;9.57;7.23;;;8.40;77.70;;;;;;5098083;28;20440;-84
2021/11/06 05:35:21;;;;;;;16.27;9.83;;;8.60;77.60;;;;;;5098678;28;20914;-84
2021/11/06 05:37:47;;;;;;;12.40;9.00;;;8.80;77.10;;;;;;5099530;28;20417;-84
2021/11/06 05:40:13;;;;;;;10.40;8.47;;;8.90;76.80;;;;;;5098737;28;20816;-84
2021/11/06 05:42:39;;;;;;;13.27;8.82;;;8.90;76.40;;;;;;5100221;28;20402;-84
2021/11/06 05:45:06;;;;;;;11.15;8.27;;;8.90;76.30;;;;;;5099861;28;20203;-84
2021/11/06 05:47:32;;;;;;;10.48;7.40;;;8.60;75.90;;;;;;5098940;28;20183;-84
2021/11/06 05:49:58;;;;;;;15.95;10.18;;;8.30;76.80;;;;;;5099057;28;20180;-83
2021/11/06 05:52:24;;;;;;;11.82;7.80;;;8.50;77.30;;;;;;5109457;28;20324;-84
2021/11/06 05:54:49;;;;;;;9.93;7.40;;;8.50;77.50;;;;;;5105411;28;20199;-84
2021/11/06 05:57:15;;;;;;;13.73;7.80;;;8.30;77.80;;;;;;5101996;28;20176;-84
2021/11/06 05:59:41;;;;;;;10.27;7.60;;;8.40;78.00;;;;;;5099604;28;20204;-84
2021/11/06 06:02:07;;;;;;;12.30;7.13;;;8.30;78.00;;;;;;5097958;28;20191;-84
2021/11/06 06:04:32;;;;;;;9.13;7.57;;;8.30;78.20;;;;;;5098074;28;20200;-84
2021/11/06 06:06:58;;;;;;;11.97;7.60;;;8.30;78.40;;;;;;5099152;28;20172;-84
2021/11/06 06:09:24;;;;;;;13.53;8.30;;;8.60;78.30;;;;;;5098255;28;20190;-84
2021/11/06 06:11:50;;;;;;;11.50;7.90;;;8.70;77.90;;;;;;5099746;28;20180;-84
2021/11/06 06:14:15;;;;;;;11.90;8.27;;;8.80;77.30;;;;;;5118624;28;20210;-84
2021/11/06 06:16:41;;;;;;;10.47;8.07;;;8.90;77.10;;;;;;5102486;28;20413;-84
2021/11/06 06:19:07;;;;;;;10.50;7.53;;;8.80;76.80;;;;;;5126051;28;20561;-84
2021/11/06 06:21:32;;;;;;;13.97;8.57;;;8.80;76.90;;;;;;5135093;28;20234;-84
2021/11/06 06:23:58;;;;;;;11.90;6.87;;;8.70;77.20;;;;;;5136624;28;20198;-84
2021/11/06 06:26:24;;;;;;;12.70;8.70;;;8.70;77.30;;;;;;5136161;28;20183;-84
2021/11/06 06:28:50;;;;;;;13.07;8.10;;;8.70;77.60;;;;;;5131428;28;20175;-84
2021/11/06 06:31:16;;;;;;;13.83;7.73;;;8.70;77.80;;;;;;5129706;28;20198;-84
2021/11/06 06:33:42;;;;;;;13.57;7.70;;;8.70;77.70;;;;;;5126686;27;20234;-84
2021/11/06 06:36:08;;;;;;;12.70;8.05;;;8.70;77.70;;;;;;5126190;28;20181;-84
2021/11/06 06:38:34;;;;;;;10.52;7.75;;;8.60;77.80;;;;;;5125352;28;20266;-84
2021/11/06 06:41:01;;;;;;;10.20;7.97;;;8.60;78.00;;;;;;5125455;28;20209;-84
2021/11/06 06:43:27;;;;;;;13.32;8.90;;;8.60;78.10;;;;;;5125694;28;20425;-84
2021/11/06 06:45:53;;;;;;;14.50;8.97;;;8.70;78.20;;;;;;5125666;28;20202;-83
2021/11/06 06:48:18;;;;;;;9.30;7.38;;;8.90;77.80;;;;;;5125559;28;20770;-84
2021/11/06 06:50:49;;;;;;;13.20;7.50;;;8.60;77.70;;;;;;5123992;28;20179;-84
2021/11/06 06:53:16;;;;;;;14.02;7.65;;;8.70;78.00;;;;;;5123796;28;20451;-85
2021/11/06 06:55:42;;;;;;;13.02;8.50;;;8.60;78.10;;;;;;5123757;28;20559;-85
2021/11/06 06:58:08;;;;;;;10.73;7.78;;;8.70;78.30;;;;;;5125077;28;20176;-84
2021/11/06 07:00:34;;;;;;;12.93;7.83;;;8.50;78.00;;;;;;5123158;28;20221;-84
2021/11/06 07:03:00;;;;;;;12.13;7.37;;;8.70;78.10;;;;;;5116707;28;20405;-85
2021/11/06 07:05:25;;;;;;;12.63;8.40;;;8.80;78.10;;;;;;5103909;28;20939;-84
2021/11/06 07:07:53;;;;;;;10.50;7.10;;;8.80;77.80;;;;;;5102365;28;20262;-84
2021/11/06 07:10:19;;;;;;;12.27;7.63;;;8.70;77.80;;;;;;5103649;28;20251;-84
2021/11/06 07:12:45;;;;;;;13.40;8.85;;;8.80;77.90;;;;;;5102845;28;20222;-84
2021/11/06 07:15:11;;;;;;;10.52;7.35;;;8.80;77.90;;;;;;5102078;28;20192;-84
2021/11/06 07:17:37;;;;;;;15.38;7.10;;;8.80;78.00;;;;;;5101744;28;20179;-84
2021/11/06 07:20:04;;;;;;;11.93;8.20;;;9.00;78.00;;;;;;5102360;28;20188;-84
2021/11/06 07:22:30;;;;;;;13.73;8.90;;;9.10;77.50;;;;;;5104157;28;20421;-84
2021/11/06 07:24:56;;;;;;;11.98;8.40;;;9.00;76.90;;;;;;5104151;28;20249;-84
2021/11/06 07:27:22;;;;;;;9.67;6.73;;;9.00;76.90;;;;;;5104691;28;20198;-84
2021/11/06 07:29:49;;;;;;;9.60;7.65;;;9.10;77.10;;;;;;5111261;28;20398;-84
2021/11/06 07:32:14;;;;;;;9.73;7.63;;;9.00;76.80;;;;;;5110556;28;20278;-84
2021/11/06 07:34:40;;;;;;;10.97;5.90;;;8.90;77.30;;;;;;5109252;28;20203;-83
2021/11/06 07:37:07;;;;;;;9.60;6.87;;;8.90;77.50;;;;;;5107957;28;20180;-84
2021/11/06 07:39:33;;;;;;;8.55;7.28;;;8.70;77.30;;;;;;5103914;28;20204;-84
2021/11/06 07:41:59;;;;;;;9.30;7.22;;;8.60;78.00;;;;;;5104985;28;20186;-84
2021/11/06 07:44:25;;;;;;;14.60;7.60;;;8.50;78.30;;;;;;5102966;28;20584;-84
2021/11/06 07:46:50;;;;;;;12.67;7.60;;;8.30;78.70;;;;;;5112502;28;20168;-84
2021/11/06 07:49:16;;;;;;;10.30;7.13;;;8.50;79.20;;;;;;5105721;28;20486;-85
2021/11/06 07:51:42;;;;;;;11.33;7.20;;;8.60;80.00;;;;;;5104000;28;20176;-84
2021/11/06 07:54:08;;;;;;;10.27;7.97;;;8.80;79.00;;;;;;5103681;28;20200;-84
2021/11/06 07:56:36;;;;;;;15.02;8.00;;;8.90;78.70;;;;;;5105166;28;20176;-84
2021/11/06 07:59:02;;;;;;;9.73;7.30;;;9.00;78.10;;;;;;5103465;28;20195;-84
2021/11/06 08:01:30;;;;;;;10.57;7.23;;;9.20;77.70;;;;;;5102779;28;20513;-84
2021/11/06 08:03:55;;;;;;;16.48;6.32;;;9.10;77.10;;;;;;5099667;28;20464;-84
2021/11/06 08:06:21;;;;;;;12.17;7.60;;;9.20;77.10;;;;;;5096551;28;20180;-84
2021/11/06 08:08:47;;;;;;;15.98;8.07;;;9.30;76.80;;;;;;5101739;28;20195;-85
2021/11/06 08:11:13;;;;;;;11.60;6.00;;;9.50;77.50;;;;;;5104102;28;20180;-85
2021/11/06 08:13:39;;;;;;;10.70;7.47;;;9.60;76.40;;;;;;5080712;28;1190631;-85
2021/11/06 08:16:05;;;;;;;11.17;6.43;;;9.60;76.50;;;;;;5129483;28;20276;-84
2021/11/06 08:18:30;;;;;;;8.67;7.53;;;9.60;76.50;;;;;;5129049;28;20445;-84
2021/11/06 08:20:56;;;;;;;11.77;6.90;;;9.70;75.90;;;;;;5127329;28;20460;-84
2021/11/06 08:23:23;;;;;;;9.57;7.10;;;9.70;75.50;;;;;;5131464;28;20155;-84
2021/11/06 08:25:50;;;;;;;10.52;6.07;;;9.60;75.10;;;;;;5134269;28;20416;-84
2021/11/06 08:28:16;;;;;;;9.88;6.20;;;9.80;75.30;;;;;;5123868;28;20176;-84
2021/11/06 08:30:42;;;;;;;9.30;6.70;;;10.00;75.20;;;;;;5118018;28;20175;-84
2021/11/06 08:33:08;;;;;;;14.43;7.20;;;10.00;74.60;;;;;;5120971;28;20190;-84
2021/11/06 08:35:34;;;;;;;7.70;6.90;;;10.10;74.30;;;;;;5125928;28;21285;-84
2021/11/06 08:38:01;;;;;;;6.63;5.63;;;10.10;74.10;;;;;;5123807;28;20175;-84
2021/11/06 08:40:28;;;;;;;10.85;7.13;;;10.10;74.10;;;;;;5119107;28;20192;-84
2021/11/06 08:42:54;;;;;;;10.95;6.55;;;10.20;74.10;;;;;;5102670;28;20184;-84
2021/11/06 08:45:21;;;;;;;12.38;7.10;;;10.30;73.80;;;;;;5103449;28;20203;-84
2021/11/06 08:47:48;;;;;;;10.25;6.20;;;10.10;73.30;;;;;;5102305;28;20183;-84
2021/11/06 08:50:20;;;;;;;8.68;5.60;;;10.20;73.70;;;;;;5102932;28;20172;-84
2021/11/06 08:52:47;;;;;;;9.75;6.35;;;10.20;74.00;;;;;;5102028;28;20180;-84
2021/11/06 08:55:14;;;;;;;8.27;7.47;;;10.40;74.00;;;;;;5102394;28;20191;-84
2021/11/06 08:57:40;;;;;;;15.52;6.57;;;10.50;73.60;;;;;;5101502;28;20206;-84
2021/11/06 09:00:14;;;;;;;10.02;6.75;;;10.60;73.00;;;;;;5102007;28;20202;-84
2021/11/06 09:02:39;;;;;;;8.23;6.35;;;10.50;73.00;;;;;;5102883;28;20156;-84
2021/11/06 09:05:08;;;;;;;8.93;6.87;;;10.50;73.00;;;;;;5100859;28;20274;-84
2021/11/06 09:07:34;;;;;;;7.50;5.22;;;10.40;73.20;;;;;;5102224;28;20164;-84
2021/11/06 09:10:04;;;;;;;7.93;5.60;;;10.30;73.70;;;;;;5101372;28;20200;-84
2021/11/06 09:12:30;;;;;;;12.95;6.35;;;10.40;73.50;;;;;;5107126;28;20179;-84
2021/11/06 09:14:55;;;;;;;9.18;5.85;;;10.40;73.60;;;;;;5119665;28;20602;-83
2021/11/06 09:17:21;;;;;;;9.70;7.37;;;10.50;73.70;;;;;;5121518;28;20186;-84
2021/11/06 09:19:47;;;;;;;9.67;6.53;;;10.60;73.50;;;;;;5122077;28;20203;-84
2021/11/06 09:22:13;;;;;;;9.50;7.30;;;10.80;73.10;;;;;;5121383;28;20175;-84
2021/11/06 09:24:40;;;;;;;9.73;6.40;;;10.80;73.00;;;;;;5121412;28;20195;-84
2021/11/06 09:27:06;;;;;;;8.55;6.47;;;10.80;73.10;;;;;;5121983;28;20489;-84
2021/11/06 09:29:32;;;;;;;12.88;6.15;;;10.80;73.10;;;;;;5125031;28;20178;-84
2021/11/06 09:31:58;;;;;;;10.73;6.77;;;10.90;73.30;;;;;;5127256;28;20266;-84
2021/11/06 09:34:24;;;;;;;11.80;7.13;;;11.10;73.00;;;;;;5125726;28;20476;-84
2021/11/06 09:36:49;;;;;;;9.77;6.43;;;11.30;73.00;;;;;;5126265;28;20179;-84
2021/11/06 09:39:15;;;;;;;9.80;5.93;;;11.50;73.00;;;;;;5126698;28;20448;-84
2021/11/06 09:41:41;;;;;;;6.83;5.90;;;11.60;71.80;;;;;;5111521;28;20542;-84
2021/11/06 09:44:08;;;;;;;8.68;6.93;;;11.60;71.50;;;;;;5105891;28;20183;-84
2021/11/06 09:46:34;;;;;;;7.82;5.60;;;11.60;71.40;;;;;;5108616;28;20183;-84
2021/11/06 09:49:01;;;;;;;10.05;5.50;;;11.70;71.50;;;;;;5111490;28;20252;-82
2021/11/06 09:51:27;;;;;;;7.97;6.73;;;11.70;71.70;;;;;;5108977;28;20209;-81
2021/11/06 09:53:54;;;;;;;7.40;5.77;;;11.80;71.50;;;;;;5102143;28;20873;-83
2021/11/06 09:56:27;;;;;;;8.65;6.38;;;11.80;71.40;;;;;;5102119;28;20413;-84
2021/11/06 09:58:56;;;;;;;11.88;6.68;;;11.90;71.10;;;;;;5104141;28;20172;-84
2021/11/06 10:01:22;;;;;;;11.20;5.72;;;11.80;71.30;;;;;;5105135;28;20251;-84
2021/11/06 10:03:49;;;;;;;8.02;6.10;;;11.70;71.40;;;;;;5102878;28;20196;-84
2021/11/06 10:06:20;;;;;;;9.55;5.82;;;11.80;71.40;;;;;;5103004;28;20180;-84
2021/11/06 10:08:47;;;;;;;10.98;6.50;;;11.90;71.50;;;;;;5101989;28;20187;-84
2021/11/06 10:11:18;;;;;;;8.27;6.70;;;11.90;70.90;;;;;;5085210;28;20185;-84
2021/11/06 10:13:59;;;;;;;8.88;5.85;;;11.90;71.10;;;;;;5118039;28;20249;-85
2021/11/06 10:16:55;;;;;;;6.68;6.07;;;12.10;70.90;;;;;;5122308;28;20178;-85
2021/11/06 10:19:32;;;;;;;9.20;6.10;;;12.00;70.40;;;;;;5110631;28;20202;-85
2021/11/06 10:22:17;;;;;;;6.63;5.57;;;12.00;70.60;;;;;;5100864;28;20171;-84
2021/11/06 10:24:54;;;;;;;11.90;6.88;;;12.00;70.80;;;;;;5100546;28;20199;-84
2021/11/06 10:27:29;;;;;;;7.90;6.53;;;11.90;70.90;;;;;;5100777;28;20168;-85
2021/11/06 10:30:07;;;;;;;8.73;5.78;;;12.00;71.00;;;;;;5101050;28;20202;-85
2021/11/06 10:32:35;;;;;;;14.15;6.65;;;12.10;70.90;;;;;;5102219;28;20172;-85
2021/11/06 10:35:15;;;;;;;5.75;5.15;;;12.20;70.70;;;;;;5101264;28;20203;-85
2021/11/06 10:37:42;;;;;;;6.88;6.10;;;12.20;70.60;;;;;;5086174;28;20183;-85
2021/11/06 10:40:12;;;;;;;6.50;5.40;;;12.40;70.30;;;;;;5103570;28;20714;-84
2021/11/06 10:42:52;;;;;;;5.70;5.07;;;12.50;70.20;;;;;;5102212;28;20183;-85
2021/11/06 10:45:23;;;;;;;7.50;6.13;;;12.50;69.90;;;;;;5101535;28;20195;-84
2021/11/06 10:48:08;;;;;;;6.25;5.15;;;12.60;69.70;;;;;;5111222;28;20202;-84
2021/11/06 10:50:37;;;;;;;8.10;5.15;;;12.40;69.50;;;;;;5114364;28;20175;-84
2021/11/06 10:53:04;;;;;;;7.88;5.25;;;12.50;69.70;;;;;;5111989;28;20172;-85
2021/11/06 10:55:38;;;;;;;6.25;5.53;;;12.50;69.80;;;;;;5111038;28;20206;-84
2021/11/06 10:58:24;;;;;;;7.10;4.68;;;12.60;69.80;;;;;;5107239;28;20270;-85
2021/11/06 11:00:56;;;;;;;11.27;6.30;;;12.80;69.50;;;;;;5101576;28;20226;-85
2021/11/06 11:03:24;;;;;;;9.00;6.13;;;13.00;69.30;;;;;;5100374;28;20581;-85
2021/11/06 11:05:50;;;;;;;8.73;4.53;;;12.80;69.00;;;;;;5103929;28;20176;-85
2021/11/06 11:08:16;;;;;;;7.75;5.43;;;12.70;69.40;;;;;;5101778;28;20182;-85
2021/11/06 11:10:44;;;;;;;7.13;5.50;;;12.70;69.00;;;;;;5101123;28;20183;-85
2021/11/06 11:13:19;;;;;;;5.55;4.95;;;12.80;69.00;;;;;;5112588;28;20190;-85
2021/11/06 11:16:06;;;;;;;7.93;5.43;;;12.60;69.30;;;;;;5118207;28;20186;-84
2021/11/06 11:18:37;;;;;;;5.88;5.28;;;12.60;69.50;;;;;;5110988;28;20175;-84
2021/11/06 11:21:10;;;;;;;9.85;5.75;;;12.70;69.70;;;;;;5100108;28;20196;-85
2021/11/06 11:23:37;;;;;;;6.78;5.25;;;12.50;69.40;;;;;;5100211;28;20252;-85
2021/11/06 11:26:03;;;;;;;7.93;5.75;;;12.40;69.80;;;;;;5101149;28;20180;-85
2021/11/06 11:28:29;;;;;;;8.43;5.27;;;12.50;70.10;;;;;;5098474;28;20183;-85
2021/11/06 11:30:56;;;;;;;10.85;5.35;;;12.60;70.20;;;;;;5097093;28;20440;-84
2021/11/06 11:33:21;;;;;;;7.55;5.75;;;12.70;69.90;;;;;;5096311;28;20187;-85
2021/11/06 11:35:50;;;;;;;12.17;5.90;;;12.70;69.60;;;;;;5097631;28;20179;-85
2021/11/06 11:38:17;;;;;;;7.13;5.15;;;12.70;69.80;;;;;;5099922;28;20999;-85
2021/11/06 11:41:11;;;;;;;6.40;5.75;;;12.60;70.10;;;;;;5097099;28;20211;-85
2021/11/06 11:43:52;;;;;;;7.38;5.50;;;12.50;70.60;;;;;;5097973;28;20196;-85
2021/11/06 11:46:33;;;;;;;9.23;6.10;;;12.60;70.70;;;;;;5102212;28;20241;-85
2021/11/06 11:48:59;;;;;;;8.48;5.18;;;12.20;71.40;;;;;;5100287;28;20183;-84
2021/11/06 11:51:30;;;;;;;6.57;5.20;;;12.30;72.20;;;;;;5100103;28;20190;-84
2021/11/06 11:54:06;;;;;;;4.82;4.20;;;12.30;72.60;;;;;;5098765;28;20441;-84
2021/11/06 11:56:32;;;;;;;5.70;4.70;;;12.40;72.90;;;;;;5099058;28;20178;-84
2021/11/06 11:59:00;;;;;;;7.40;5.53;;;12.40;73.20;;;;;;5082600;28;20271;-84
2021/11/06 12:01:26;;;;;;;7.38;5.82;;;12.50;73.60;;;;;;5100277;28;20172;-83
2021/11/06 12:03:53;;;;;;;5.80;5.30;;;12.40;73.60;;;;;;5099259;28;20192;-83
2021/11/06 12:06:37;;;;;;;9.48;5.95;;;12.40;74.00;;;;;;5098973;28;20456;-83
2021/11/06 12:09:12;;;;;;;6.90;6.20;;;12.40;73.80;;;;;;5100030;28;20229;-83
2021/11/06 12:11:52;;;;;;;5.35;4.78;;;12.30;73.80;;;;;;5098569;28;20174;-83
2021/11/06 12:14:28;;;;;;;10.27;5.75;;;12.50;74.10;;;;;;5098291;28;20215;-83
2021/11/06 12:16:57;;;;;;;11.85;6.63;;;12.60;73.80;;;;;;5099368;28;20172;-83
2021/11/06 12:19:37;;;;;;;8.60;6.57;;;12.40;73.50;;;;;;5099675;28;20196;-83
2021/11/06 12:22:10;;;;;;;9.95;6.35;;;12.40;73.60;;;;;;5100502;28;20160;-83
2021/11/06 12:24:36;;;;;;;10.73;7.38;;;12.40;73.80;;;;;;5099282;28;20274;-83
2021/11/06 12:27:06;;;;;;;7.07;5.90;;;12.50;73.80;;;;;;5098913;28;20176;-83
2021/11/06 12:29:35;;;;;;;8.43;6.72;;;12.40;73.70;;;;;;5098637;28;20183;-83
2021/11/06 12:32:17;;;;;;;11.02;7.45;;;12.60;73.70;;;;;;5099956;28;20176;-83
2021/11/06 12:34:52;;;;;;;10.95;7.18;;;12.60;73.20;;;;;;5098179;28;20586;-83
2021/11/06 12:37:36;;;;;;;9.35;6.47;;;12.60;73.30;;;;;;5099546;28;20179;-83
2021/11/06 12:40:05;;;;;;;12.43;8.20;;;12.80;73.40;;;;;;5098824;28;20243;-83
2021/11/06 12:42:32;;;;;;;8.32;6.90;;;12.60;72.60;;;;;;5098968;28;20194;-83
2021/11/06 12:45:04;;;;;;;9.52;7.63;;;12.70;73.00;;;;;;5098423;28;20196;-83